CN-MBR Phenom 300 runway over run Aug 6 2011 Switzerland

Discussion of topics related to corporate aviation throughout the world.

Moderators: ahramin, sky's the limit, sepia, Sulako, lilfssister, North Shore

Post Reply
Message
Author
bizjets101
Rank 10
Rank 10
Posts: 2105
Joined: Fri Sep 17, 2010 7:44 pm

CN-MBR Phenom 300 runway over run Aug 6 2011 Switzerland

#1 Post by bizjets101 » Mon Aug 06, 2012 3:03 pm

Two crew (Moroccan) and one passenger (French) were uninjured, apparently aircraft just missed a passing bus.
(There have been multiple over runs involving brake issues with the Phenom 100, this is first Phenom 300 over run, unknown cause)

CN-MBR Phenom 300 of Dalia Air, Morocco landing at LSZR - St. Gallen Altenrhein Airport on runway 10R 4922' over ran the runway - crashing through the airports perimeter fence.

(from ASN) The weather reported about the time of the accident (ca 13:40 UTC / 15:40 LT) was:
LSZR 061350Z AUTO VRB01KT 9999 -RA SCT060/// OVC080/// 18/16 Q1017
[13:50 UTC: Winds Variable at 1 knot; Visibility 10+ km; light rain; Scattered clouds at 6000 feet, Overcast at 8000 feet; Temperature: 18°C, Dew point 16°C; Pressure 1017 mb]
LSZR 061320Z 28014KT 9000 +RA BKN045 18/16 Q1016 NOSIG RMK I
[13:20 UTC: Winds 280 degrees at 1 knot; Visibility 9000 m; heavy rain; Broken clouds at 4500 feet; Temperature: 18°C, Dew point 16°C; Pressure 1016 mb]

Image

Image

Image

Image

Image

Image
---------- ADS -----------

bizjets101
Rank 10
Rank 10
Posts: 2105
Joined: Fri Sep 17, 2010 7:44 pm

Re: CN-MBR Phenom 300 runway over run Aug 6 2011 Switzerland

#2 Post by bizjets101 » Mon Aug 06, 2012 3:24 pm

Image

Image

Image

Image

Image

Image
---------- ADS -----------

flyer
Rank 3
Rank 3
Posts: 112
Joined: Mon Jan 17, 2005 4:37 pm

Re: CN-MBR Phenom 300 runway over run Aug 6 2011 Switzerland

#3 Post by flyer » Mon Aug 06, 2012 3:33 pm

as beautifully efficient and powerful as those engines are, I would still always miss the option of those buckets back there...
---------- ADS -----------

bizjets101
Rank 10
Rank 10
Posts: 2105
Joined: Fri Sep 17, 2010 7:44 pm

Re: CN-MBR Phenom 300 runway over run Aug 6 2011 Switzerland

#4 Post by bizjets101 » Wed Aug 08, 2012 2:21 pm

---------- ADS -----------

Post Reply

Return to “Corporate”